sensor_id;sensor_type;location;lat;lon;timestamp;pressure;altitude;pressure_sealevel;temperature;humidity
19553;BME280;9420;50.876;7.012;2023-06-14T00:01:41;100817.03;;;33.91;32.71
19553;BME280;9420;50.876;7.012;2023-06-14T00:04:11;100813.97;;;33.79;33.25
19553;BME280;9420;50.876;7.012;2023-06-14T00:06:40;100817.50;;;33.94;33.60
19553;BME280;9420;50.876;7.012;2023-06-14T00:09:08;100822.56;;;33.76;32.92
19553;BME280;9420;50.876;7.012;2023-06-14T00:11:36;100814.31;;;33.55;33.47
19553;BME280;9420;50.876;7.012;2023-06-14T00:14:03;100823.19;;;33.13;33.94
19553;BME280;9420;50.876;7.012;2023-06-14T00:16:30;100817.22;;;34.04;33.41
19553;BME280;9420;50.876;7.012;2023-06-14T00:18:59;100819.09;;;33.68;33.89
19553;BME280;9420;50.876;7.012;2023-06-14T00:21:26;100824.94;;;34.21;32.68
19553;BME280;9420;50.876;7.012;2023-06-14T00:23:56;100833.06;;;33.79;33.35
19553;BME280;9420;50.876;7.012;2023-06-14T00:26:23;100830.16;;;32.78;36.09
19553;BME280;9420;50.876;7.012;2023-06-14T00:28:52;100834.41;;;32.96;36.71
19553;BME280;9420;50.876;7.012;2023-06-14T00:31:19;100829.88;;;32.73;36.69
19553;BME280;9420;50.876;7.012;2023-06-14T00:33:46;100842.09;;;32.40;35.91
19553;BME280;9420;50.876;7.012;2023-06-14T00:36:14;100836.09;;;32.67;35.36
19553;BME280;9420;50.876;7.012;2023-06-14T00:38:41;100834.66;;;33.52;33.96
19553;BME280;9420;50.876;7.012;2023-06-14T00:41:10;100836.28;;;32.95;35.27
19553;BME280;9420;50.876;7.012;2023-06-14T00:43:37;100840.63;;;32.89;35.39
19553;BME280;9420;50.876;7.012;2023-06-14T00:46:04;100834.94;;;33.14;35.18
19553;BME280;9420;50.876;7.012;2023-06-14T00:48:32;100840.38;;;31.94;36.30
19553;BME280;9420;50.876;7.012;2023-06-14T00:51:01;100841.91;;;32.42;36.20
19553;BME280;9420;50.876;7.012;2023-06-14T00:53:30;100844.78;;;33.44;35.06
19553;BME280;9420;50.876;7.012;2023-06-14T00:56:00;100844.50;;;32.13;35.97
19553;BME280;9420;50.876;7.012;2023-06-14T00:58:29;100851.22;;;32.84;35.92
19553;BME280;9420;50.876;7.012;2023-06-14T01:00:56;100851.59;;;32.67;36.18
19553;BME280;9420;50.876;7.012;2023-06-14T01:03:24;100853.38;;;33.70;34.66
19553;BME280;9420;50.876;7.012;2023-06-14T01:05:56;100853.00;;;33.29;34.66
19553;BME280;9420;50.876;7.012;2023-06-14T01:08:36;100848.69;;;33.64;34.43
19553;BME280;9420;50.876;7.012;2023-06-14T01:11:14;100857.41;;;33.45;35.07
19553;BME280;9420;50.876;7.012;2023-06-14T01:13:46;100858.84;;;33.41;34.72
19553;BME280;9420;50.876;7.012;2023-06-14T01:16:14;100859.69;;;34.27;33.40
19553;BME280;9420;50.876;7.012;2023-06-14T01:18:42;100862.94;;;32.56;35.30
19553;BME280;9420;50.876;7.012;2023-06-14T01:21:21;100866.66;;;32.32;35.87
19553;BME280;9420;50.876;7.012;2023-06-14T01:23:49;100867.69;;;32.91;34.70
19553;BME280;9420;50.876;7.012;2023-06-14T01:26:19;100866.47;;;32.79;35.69
19553;BME280;9420;50.876;7.012;2023-06-14T01:28:47;100870.63;;;31.99;36.93
19553;BME280;9420;50.876;7.012;2023-06-14T01:31:18;100869.34;;;32.40;36.28
19553;BME280;9420;50.876;7.012;2023-06-14T01:33:48;100868.34;;;32.78;35.61
19553;BME280;9420;50.876;7.012;2023-06-14T01:36:18;100867.50;;;32.33;36.41
19553;BME280;9420;50.876;7.012;2023-06-14T01:38:46;100872.16;;;32.24;36.48
19553;BME280;9420;50.876;7.012;2023-06-14T01:41:16;100873.16;;;32.31;36.44
19553;BME280;9420;50.876;7.012;2023-06-14T01:43:45;100872.66;;;33.10;35.19
19553;BME280;9420;50.876;7.012;2023-06-14T01:46:15;100880.28;;;32.77;36.00
19553;BME280;9420;50.876;7.012;2023-06-14T01:48:43;100879.13;;;32.04;36.86
19553;BME280;9420;50.876;7.012;2023-06-14T01:51:11;100878.19;;;32.42;36.28
19553;BME280;9420;50.876;7.012;2023-06-14T01:53:38;100876.63;;;32.48;35.68
19553;BME280;9420;50.876;7.012;2023-06-14T01:56:07;100876.22;;;32.28;36.70
19553;BME280;9420;50.876;7.012;2023-06-14T01:58:36;100878.59;;;33.72;34.75
19553;BME280;9420;50.876;7.012;2023-06-14T02:01:03;100875.88;;;33.43;34.71
19553;BME280;9420;50.876;7.012;2023-06-14T02:03:31;100882.25;;;33.21;35.58
19553;BME280;9420;50.876;7.012;2023-06-14T02:05:58;100878.63;;;32.91;35.38
19553;BME280;9420;50.876;7.012;2023-06-14T02:08:25;100880.06;;;33.02;35.50
19553;BME280;9420;50.876;7.012;2023-06-14T02:10:53;100867.22;;;33.54;35.62
19553;BME280;9420;50.876;7.012;2023-06-14T02:13:20;100876.06;;;32.89;36.15
19553;BME280;9420;50.876;7.012;2023-06-14T02:15:49;100881.78;;;32.65;36.92
19553;BME280;9420;50.876;7.012;2023-06-14T02:18:19;100880.22;;;32.85;36.97
19553;BME280;9420;50.876;7.012;2023-06-14T02:20:46;100873.75;;;32.41;37.76
19553;BME280;9420;50.876;7.012;2023-06-14T02:23:13;100871.28;;;32.32;38.04
19553;BME280;9420;50.876;7.012;2023-06-14T02:25:41;100879.88;;;32.43;37.18
19553;BME280;9420;50.876;7.012;2023-06-14T02:28:09;100870.06;;;32.34;37.07
19553;BME280;9420;50.876;7.012;2023-06-14T02:30:36;100876.13;;;32.22;37.43
19553;BME280;9420;50.876;7.012;2023-06-14T02:33:05;100872.28;;;32.61;36.62
19553;BME280;9420;50.876;7.012;2023-06-14T02:35:32;100872.63;;;32.13;36.63
19553;BME280;9420;50.876;7.012;2023-06-14T02:37:59;100879.00;;;32.20;36.80
19553;BME280;9420;50.876;7.012;2023-06-14T02:40:27;100878.84;;;32.44;36.34
19553;BME280;9420;50.876;7.012;2023-06-14T02:42:54;100882.66;;;32.13;36.84
19553;BME280;9420;50.876;7.012;2023-06-14T02:45:21;100886.44;;;32.34;36.63
19553;BME280;9420;50.876;7.012;2023-06-14T02:47:48;100883.31;;;32.37;36.85
19553;BME280;9420;50.876;7.012;2023-06-14T02:50:17;100893.31;;;32.22;37.15
19553;BME280;9420;50.876;7.012;2023-06-14T02:52:44;100876.66;;;32.17;37.01
19553;BME280;9420;50.876;7.012;2023-06-14T02:55:12;100893.91;;;32.32;36.93
19553;BME280;9420;50.876;7.012;2023-06-14T02:57:39;100896.28;;;32.35;37.00
19553;BME280;9420;50.876;7.012;2023-06-14T03:00:07;100897.06;;;32.21;37.11
19553;BME280;9420;50.876;7.012;2023-06-14T03:02:37;100908.44;;;32.02;37.52
19553;BME280;9420;50.876;7.012;2023-06-14T03:05:05;100901.66;;;31.98;37.57
19553;BME280;9420;50.876;7.012;2023-06-14T03:07:35;100904.44;;;32.13;37.11
19553;BME280;9420;50.876;7.012;2023-06-14T03:10:07;100906.44;;;31.80;37.09
19553;BME280;9420;50.876;7.012;2023-06-14T03:12:35;100908.59;;;32.76;36.14
19553;BME280;9420;50.876;7.012;2023-06-14T03:15:03;100904.41;;;32.88;36.40
19553;BME280;9420;50.876;7.012;2023-06-14T03:17:30;100915.38;;;32.80;35.24
19553;BME280;9420;50.876;7.012;2023-06-14T03:19:59;100918.41;;;32.85;35.73
19553;BME280;9420;50.876;7.012;2023-06-14T03:22:27;100912.75;;;32.19;37.17
19553;BME280;9420;50.876;7.012;2023-06-14T03:24:55;100916.69;;;32.39;36.64
19553;BME280;9420;50.876;7.012;2023-06-14T03:27:23;100920.66;;;32.06;37.09
19553;BME280;9420;50.876;7.012;2023-06-14T03:29:50;100923.94;;;32.24;37.22
19553;BME280;9420;50.876;7.012;2023-06-14T03:32:17;100922.25;;;32.00;37.10
19553;BME280;9420;50.876;7.012;2023-06-14T03:34:45;100928.19;;;32.27;37.39
19553;BME280;9420;50.876;7.012;2023-06-14T03:37:12;100925.69;;;31.15;38.77
19553;BME280;9420;50.876;7.012;2023-06-14T03:39:39;100926.19;;;31.11;39.26
19553;BME280;9420;50.876;7.012;2023-06-14T03:42:13;100929.59;;;31.29;38.96
19553;BME280;9420;50.876;7.012;2023-06-14T03:44:41;100933.47;;;30.38;39.95
19553;BME280;9420;50.876;7.012;2023-06-14T03:47:08;100939.97;;;30.61;40.71
19553;BME280;9420;50.876;7.012;2023-06-14T03:49:36;100937.59;;;30.74;39.70
19553;BME280;9420;50.876;7.012;2023-06-14T03:52:04;100943.00;;;30.42;40.45
19553;BME280;9420;50.876;7.012;2023-06-14T03:54:31;100951.06;;;30.92;40.03
19553;BME280;9420;50.876;7.012;2023-06-14T03:56:59;100943.69;;;31.32;39.79
19553;BME280;9420;50.876;7.012;2023-06-14T03:59:28;100948.84;;;30.87;41.65
19553;BME280;9420;50.876;7.012;2023-06-14T04:01:55;100948.16;;;30.93;41.27
19553;BME280;9420;50.876;7.012;2023-06-14T04:04:23;100945.41;;;31.33;41.30
19553;BME280;9420;50.876;7.012;2023-06-14T04:06:54;100948.47;;;30.82;42.23
19553;BME280;9420;50.876;7.012;2023-06-14T04:09:23;100951.91;;;31.08;42.05
19553;BME280;9420;50.876;7.012;2023-06-14T04:11:51;100959.38;;;31.14;41.94
19553;BME280;9420;50.876;7.012;2023-06-14T04:14:19;100950.13;;;32.33;40.46
19553;BME280;9420;50.876;7.012;2023-06-14T04:16:48;100965.41;;;32.42;40.21
19553;BME280;9420;50.876;7.012;2023-06-14T04:19:16;100966.44;;;31.56;41.96
19553;BME280;9420;50.876;7.012;2023-06-14T04:21:44;100969.47;;;31.69;41.66
19553;BME280;9420;50.876;7.012;2023-06-14T04:24:11;100969.34;;;31.38;42.83
19553;BME280;9420;50.876;7.012;2023-06-14T04:26:39;100979.41;;;31.46;42.45
19553;BME280;9420;50.876;7.012;2023-06-14T04:29:06;100974.97;;;31.61;42.00
19553;BME280;9420;50.876;7.012;2023-06-14T04:31:34;100981.06;;;31.55;42.20
19553;BME280;9420;50.876;7.012;2023-06-14T04:34:04;100978.22;;;31.48;42.91
19553;BME280;9420;50.876;7.012;2023-06-14T04:36:32;100973.22;;;31.68;42.24
19553;BME280;9420;50.876;7.012;2023-06-14T04:39:00;100985.22;;;31.89;41.77
19553;BME280;9420;50.876;7.012;2023-06-14T04:41:29;100987.47;;;31.94;41.39
19553;BME280;9420;50.876;7.012;2023-06-14T04:43:57;100987.16;;;32.20;41.26
19553;BME280;9420;50.876;7.012;2023-06-14T04:46:27;100986.16;;;32.51;40.69
19553;BME280;9420;50.876;7.012;2023-06-14T04:48:55;100988.78;;;32.67;40.20
19553;BME280;9420;50.876;7.012;2023-06-14T04:51:24;100987.84;;;32.98;40.03
19553;BME280;9420;50.876;7.012;2023-06-14T04:53:55;100990.25;;;32.78;40.16
19553;BME280;9420;50.876;7.012;2023-06-14T04:56:24;100989.59;;;32.99;39.75
19553;BME280;9420;50.876;7.012;2023-06-14T04:58:52;100992.06;;;33.60;39.46
19553;BME280;9420;50.876;7.012;2023-06-14T05:01:20;100994.00;;;34.03;38.82
19553;BME280;9420;50.876;7.012;2023-06-14T05:03:49;100993.66;;;34.27;38.45
19553;BME280;9420;50.876;7.012;2023-06-14T05:06:16;100992.28;;;34.53;38.53
19553;BME280;9420;50.876;7.012;2023-06-14T05:08:45;100992.59;;;34.43;38.29
19553;BME280;9420;50.876;7.012;2023-06-14T05:11:13;101002.44;;;34.59;37.63
19553;BME280;9420;50.876;7.012;2023-06-14T05:13:40;101004.88;;;34.68;37.38
19553;BME280;9420;50.876;7.012;2023-06-14T05:16:08;101009.22;;;34.63;37.40
19553;BME280;9420;50.876;7.012;2023-06-14T05:18:36;101009.31;;;35.11;37.14
19553;BME280;9420;50.876;7.012;2023-06-14T05:21:03;101008.47;;;35.60;35.55
19553;BME280;9420;50.876;7.012;2023-06-14T05:23:31;101005.56;;;35.40;35.45
19553;BME280;9420;50.876;7.012;2023-06-14T05:26:00;101009.16;;;35.68;35.19
19553;BME280;9420;50.876;7.012;2023-06-14T05:28:28;101007.78;;;35.51;34.53
19553;BME280;9420;50.876;7.012;2023-06-14T05:30:56;101010.84;;;35.97;32.33
19553;BME280;9420;50.876;7.012;2023-06-14T05:33:24;101012.53;;;35.70;34.03
19553;BME280;9420;50.876;7.012;2023-06-14T05:35:51;101012.38;;;34.81;34.93
19553;BME280;9420;50.876;7.012;2023-06-14T05:38:19;101007.56;;;34.62;34.83
19553;BME280;9420;50.876;7.012;2023-06-14T05:40:46;101011.13;;;34.62;34.53
19553;BME280;9420;50.876;7.012;2023-06-14T05:43:15;101013.56;;;35.14;34.09
19553;BME280;9420;50.876;7.012;2023-06-14T05:45:42;101018.53;;;34.32;34.45
19553;BME280;9420;50.876;7.012;2023-06-14T05:48:09;101021.91;;;35.06;32.75
19553;BME280;9420;50.876;7.012;2023-06-14T05:50:37;101021.94;;;34.70;33.98
19553;BME280;9420;50.876;7.012;2023-06-14T05:53:04;101020.44;;;35.52;31.52
19553;BME280;9420;50.876;7.012;2023-06-14T05:55:31;101028.56;;;35.95;30.92
19553;BME280;9420;50.876;7.012;2023-06-14T05:57:58;101032.91;;;35.89;31.78
19553;BME280;9420;50.876;7.012;2023-06-14T06:00:28;101026.56;;;36.23;31.19
19553;BME280;9420;50.876;7.012;2023-06-14T06:02:55;101026.97;;;36.67;30.31
19553;BME280;9420;50.876;7.012;2023-06-14T06:05:24;101026.91;;;36.54;30.86
19553;BME280;9420;50.876;7.012;2023-06-14T06:07:52;101028.00;;;36.53;31.24
19553;BME280;9420;50.876;7.012;2023-06-14T06:10:19;101037.94;;;36.67;30.86
19553;BME280;9420;50.876;7.012;2023-06-14T06:12:47;101048.19;;;36.45;30.78
19553;BME280;9420;50.876;7.012;2023-06-14T06:15:15;101026.84;;;37.01;29.54
19553;BME280;9420;50.876;7.012;2023-06-14T06:17:43;101034.22;;;37.20;29.34
19553;BME280;9420;50.876;7.012;2023-06-14T06:20:11;101038.72;;;37.34;29.47
19553;BME280;9420;50.876;7.012;2023-06-14T06:22:39;101043.31;;;37.14;29.10
19553;BME280;9420;50.876;7.012;2023-06-14T06:25:07;101034.28;;;37.53;28.50
19553;BME280;9420;50.876;7.012;2023-06-14T06:27:34;101034.06;;;37.41;29.42
19553;BME280;9420;50.876;7.012;2023-06-14T06:30:04;101034.47;;;37.25;28.37
19553;BME280;9420;50.876;7.012;2023-06-14T06:32:31;101030.69;;;37.39;28.63
19553;BME280;9420;50.876;7.012;2023-06-14T06:35:00;101040.78;;;37.78;28.25
19553;BME280;9420;50.876;7.012;2023-06-14T06:37:27;101039.44;;;38.20;28.29
19553;BME280;9420;50.876;7.012;2023-06-14T06:39:54;101034.72;;;38.40;27.82
19553;BME280;9420;50.876;7.012;2023-06-14T06:42:22;101046.88;;;39.02;27.89
19553;BME280;9420;50.876;7.012;2023-06-14T06:44:49;101052.19;;;37.95;28.78
19553;BME280;9420;50.876;7.012;2023-06-14T06:47:16;101057.06;;;37.99;29.21
19553;BME280;9420;50.876;7.012;2023-06-14T06:49:43;101052.38;;;38.70;27.19
19553;BME280;9420;50.876;7.012;2023-06-14T06:52:12;101054.03;;;38.71;28.70
19553;BME280;9420;50.876;7.012;2023-06-14T06:54:39;101049.78;;;38.75;27.27
19553;BME280;9420;50.876;7.012;2023-06-14T06:57:07;101060.28;;;38.91;28.04
19553;BME280;9420;50.876;7.012;2023-06-14T06:59:34;101055.97;;;38.07;28.06
19553;BME280;9420;50.876;7.012;2023-06-14T07:02:02;101061.16;;;38.41;28.23
19553;BME280;9420;50.876;7.012;2023-06-14T07:04:29;101053.56;;;39.43;37.37
19553;BME280;9420;50.876;7.012;2023-06-14T07:06:57;59321.84;;;-142.70;100.00
19553;BME280;9420;50.876;7.012;2023-06-14T07:09:25;59321.84;;;-142.70;100.00
19553;BME280;9420;50.876;7.012;2023-06-14T07:11:53;59321.84;;;-142.70;100.00
